sensor_id;sensor_type;location;lat;lon;timestamp;temperature;humidity
65598;SHT31;52267;51.984;20.956;2022-09-01T00:02:25;11.58;76.15
65598;SHT31;52267;51.984;20.956;2022-09-01T00:04:53;11.59;76.08
65598;SHT31;52267;51.984;20.956;2022-09-01T00:07:24;11.57;76.20
65598;SHT31;52267;51.984;20.956;2022-09-01T00:09:58;11.56;76.20
65598;SHT31;52267;51.984;20.956;2022-09-01T00:12:26;11.50;76.35
65598;SHT31;52267;51.984;20.956;2022-09-01T00:14:54;11.47;76.35
65598;SHT31;52267;51.984;20.956;2022-09-01T00:17:22;11.41;76.48
65598;SHT31;52267;51.984;20.956;2022-09-01T00:19:49;11.32;76.87
65598;SHT31;52267;51.984;20.956;2022-09-01T00:22:16;11.24;77.24
65598;SHT31;52267;51.984;20.956;2022-09-01T00:24:43;11.20;77.12
65598;SHT31;52267;51.984;20.956;2022-09-01T00:27:10;11.19;77.03
65598;SHT31;52267;51.984;20.956;2022-09-01T00:29:37;11.13;77.14
65598;SHT31;52267;51.984;20.956;2022-09-01T00:32:04;11.09;77.13
65598;SHT31;52267;51.984;20.956;2022-09-01T00:34:31;11.10;77.04
65598;SHT31;52267;51.984;20.956;2022-09-01T00:36:58;11.08;76.87
65598;SHT31;52267;51.984;20.956;2022-09-01T00:39:25;11.04;76.91
65598;SHT31;52267;51.984;20.956;2022-09-01T00:41:52;11.00;76.98
65598;SHT31;52267;51.984;20.956;2022-09-01T00:44:19;10.95;77.03
65598;SHT31;52267;51.984;20.956;2022-09-01T00:46:53;10.93;76.82
65598;SHT31;52267;51.984;20.956;2022-09-01T00:52:01;10.89;76.32
65598;SHT31;52267;51.984;20.956;2022-09-01T00:54:46;10.84;76.47
65598;SHT31;52267;51.984;20.956;2022-09-01T00:57:19;10.77;76.58
65598;SHT31;52267;51.984;20.956;2022-09-01T01:00:21;10.73;76.58
65598;SHT31;52267;51.984;20.956;2022-09-01T01:02:47;10.69;76.32
65598;SHT31;52267;51.984;20.956;2022-09-01T01:05:18;10.64;76.02
65598;SHT31;52267;51.984;20.956;2022-09-01T01:07:47;10.58;76.16
65598;SHT31;52267;51.984;20.956;2022-09-01T01:10:16;10.52;76.30
65598;SHT31;52267;51.984;20.956;2022-09-01T01:12:44;10.44;76.43
65598;SHT31;52267;51.984;20.956;2022-09-01T01:15:12;10.42;76.54
65598;SHT31;52267;51.984;20.956;2022-09-01T01:17:39;10.34;76.72
65598;SHT31;52267;51.984;20.956;2022-09-01T01:20:06;10.34;76.66
65598;SHT31;52267;51.984;20.956;2022-09-01T01:23:04;10.33;76.56
65598;SHT31;52267;51.984;20.956;2022-09-01T01:25:53;10.26;76.83
65598;SHT31;52267;51.984;20.956;2022-09-01T01:28:30;10.22;76.76
65598;SHT31;52267;51.984;20.956;2022-09-01T01:36:10;10.13;76.38
65598;SHT31;52267;51.984;20.956;2022-09-01T01:38:42;10.04;76.63
65598;SHT31;52267;51.984;20.956;2022-09-01T01:41:10;9.98;76.95
65598;SHT31;52267;51.984;20.956;2022-09-01T01:43:38;9.92;76.91
65598;SHT31;52267;51.984;20.956;2022-09-01T01:46:07;9.87;77.05
65598;SHT31;52267;51.984;20.956;2022-09-01T01:48:37;9.78;77.33
65598;SHT31;52267;51.984;20.956;2022-09-01T01:51:07;9.75;77.40
65598;SHT31;52267;51.984;20.956;2022-09-01T01:53:37;9.76;77.26
65598;SHT31;52267;51.984;20.956;2022-09-01T01:56:04;9.75;77.12
65598;SHT31;52267;51.984;20.956;2022-09-01T01:58:34;9.76;76.92
65598;SHT31;52267;51.984;20.956;2022-09-01T02:01:01;9.73;76.81
65598;SHT31;52267;51.984;20.956;2022-09-01T02:03:31;9.66;76.94
65598;SHT31;52267;51.984;20.956;2022-09-01T02:06:05;9.60;77.05
65598;SHT31;52267;51.984;20.956;2022-09-01T02:08:35;9.57;77.10
65598;SHT31;52267;51.984;20.956;2022-09-01T02:11:05;9.52;77.18
65598;SHT31;52267;51.984;20.956;2022-09-01T02:13:33;9.48;77.27
65598;SHT31;52267;51.984;20.956;2022-09-01T02:16:02;9.45;77.31
65598;SHT31;52267;51.984;20.956;2022-09-01T02:18:39;9.41;77.50
65598;SHT31;52267;51.984;20.956;2022-09-01T02:21:14;9.37;77.62
65598;SHT31;52267;51.984;20.956;2022-09-01T02:23:46;9.34;77.64
65598;SHT31;52267;51.984;20.956;2022-09-01T02:26:26;9.32;77.59
65598;SHT31;52267;51.984;20.956;2022-09-01T02:29:01;9.27;77.61
65598;SHT31;52267;51.984;20.956;2022-09-01T02:31:32;9.23;77.60
65598;SHT31;52267;51.984;20.956;2022-09-01T02:34:04;9.25;77.25
65598;SHT31;52267;51.984;20.956;2022-09-01T02:36:43;9.25;77.11
65598;SHT31;52267;51.984;20.956;2022-09-01T02:39:17;9.21;77.13
65598;SHT31;52267;51.984;20.956;2022-09-01T02:41:50;9.14;77.33
65598;SHT31;52267;51.984;20.956;2022-09-01T02:44:18;9.10;77.41
65598;SHT31;52267;51.984;20.956;2022-09-01T02:46:47;9.06;77.41
65598;SHT31;52267;51.984;20.956;2022-09-01T02:49:17;9.01;77.42
65598;SHT31;52267;51.984;20.956;2022-09-01T02:51:50;8.99;77.40
65598;SHT31;52267;51.984;20.956;2022-09-01T02:54:20;8.98;77.35
65598;SHT31;52267;51.984;20.956;2022-09-01T02:56:48;8.94;77.34
65598;SHT31;52267;51.984;20.956;2022-09-01T02:59:15;8.95;77.13
65598;SHT31;52267;51.984;20.956;2022-09-01T03:01:50;8.93;77.04
65598;SHT31;52267;51.984;20.956;2022-09-01T03:04:19;8.91;76.74
65598;SHT31;52267;51.984;20.956;2022-09-01T03:06:49;8.89;76.69
65598;SHT31;52267;51.984;20.956;2022-09-01T03:09:20;8.82;76.84
65598;SHT31;52267;51.984;20.956;2022-09-01T03:11:50;8.75;77.01
65598;SHT31;52267;51.984;20.956;2022-09-01T03:14:19;8.69;77.20
65598;SHT31;52267;51.984;20.956;2022-09-01T03:16:48;8.64;77.50
65598;SHT31;52267;51.984;20.956;2022-09-01T03:19:15;8.56;77.71
65598;SHT31;52267;51.984;20.956;2022-09-01T03:21:44;8.56;77.68
65598;SHT31;52267;51.984;20.956;2022-09-01T03:24:12;8.52;77.68
65598;SHT31;52267;51.984;20.956;2022-09-01T03:26:43;8.49;77.77
65598;SHT31;52267;51.984;20.956;2022-09-01T03:29:12;8.43;77.96
65598;SHT31;52267;51.984;20.956;2022-09-01T03:31:40;8.38;78.03
65598;SHT31;52267;51.984;20.956;2022-09-01T03:34:08;8.39;77.96
65598;SHT31;52267;51.984;20.956;2022-09-01T03:36:36;8.33;77.96
65598;SHT31;52267;51.984;20.956;2022-09-01T03:39:03;8.30;78.02
65598;SHT31;52267;51.984;20.956;2022-09-01T03:41:30;8.33;77.62
65598;SHT31;52267;51.984;20.956;2022-09-01T03:43:58;8.33;77.17
65598;SHT31;52267;51.984;20.956;2022-09-01T03:46:26;8.29;76.97
65598;SHT31;52267;51.984;20.956;2022-09-01T03:48:58;8.26;76.91
65598;SHT31;52267;51.984;20.956;2022-09-01T03:51:28;8.22;76.83
65598;SHT31;52267;51.984;20.956;2022-09-01T03:53:56;8.15;76.61
65598;SHT31;52267;51.984;20.956;2022-09-01T03:56:27;8.11;76.78
65598;SHT31;52267;51.984;20.956;2022-09-01T03:58:55;8.07;76.88
65598;SHT31;52267;51.984;20.956;2022-09-01T04:01:25;8.05;77.09
65598;SHT31;52267;51.984;20.956;2022-09-01T04:03:54;8.00;77.26
65598;SHT31;52267;51.984;20.956;2022-09-01T04:06:21;7.97;77.41
65598;SHT31;52267;51.984;20.956;2022-09-01T04:08:49;7.96;77.56
65598;SHT31;52267;51.984;20.956;2022-09-01T04:11:22;7.95;77.77
65598;SHT31;52267;51.984;20.956;2022-09-01T04:13:50;7.89;78.42
65598;SHT31;52267;51.984;20.956;2022-09-01T04:16:28;7.92;78.29
65598;SHT31;52267;51.984;20.956;2022-09-01T04:19:17;7.90;78.75
65598;SHT31;52267;51.984;20.956;2022-09-01T04:21:51;7.91;78.79
65598;SHT31;52267;51.984;20.956;2022-09-01T04:24:22;7.91;79.32
65598;SHT31;52267;51.984;20.956;2022-09-01T04:26:54;7.94;79.13
65598;SHT31;52267;51.984;20.956;2022-09-01T04:29:23;8.03;78.63
65598;SHT31;52267;51.984;20.956;2022-09-01T04:31:55;8.08;78.66
65598;SHT31;52267;51.984;20.956;2022-09-01T04:34:28;8.09;79.05
65598;SHT31;52267;51.984;20.956;2022-09-01T04:37:23;8.16;79.11
65598;SHT31;52267;51.984;20.956;2022-09-01T04:39:49;8.22;79.32
65598;SHT31;52267;51.984;20.956;2022-09-01T04:42:19;8.30;79.22
65598;SHT31;52267;51.984;20.956;2022-09-01T04:44:49;8.40;79.37
65598;SHT31;52267;51.984;20.956;2022-09-01T04:47:21;8.51;79.40
65598;SHT31;52267;51.984;20.956;2022-09-01T04:49:55;8.62;79.13
65598;SHT31;52267;51.984;20.956;2022-09-01T04:52:26;8.74;79.12
65598;SHT31;52267;51.984;20.956;2022-09-01T04:54:53;8.84;79.14
65598;SHT31;52267;51.984;20.956;2022-09-01T04:57:20;8.97;79.12
65598;SHT31;52267;51.984;20.956;2022-09-01T04:59:48;9.11;79.14
65598;SHT31;52267;51.984;20.956;2022-09-01T05:02:15;9.22;79.68
65598;SHT31;52267;51.984;20.956;2022-09-01T05:04:43;9.35;79.77
65598;SHT31;52267;51.984;20.956;2022-09-01T05:07:11;9.48;80.08
65598;SHT31;52267;51.984;20.956;2022-09-01T05:09:39;9.63;80.21
65598;SHT31;52267;51.984;20.956;2022-09-01T05:12:06;9.78;80.37
65598;SHT31;52267;51.984;20.956;2022-09-01T05:14:41;9.91;80.45
65598;SHT31;52267;51.984;20.956;2022-09-01T05:17:13;10.05;80.47
65598;SHT31;52267;51.984;20.956;2022-09-01T05:19:42;10.17;80.64
65598;SHT31;52267;51.984;20.956;2022-09-01T05:22:13;10.29;80.72
65598;SHT31;52267;51.984;20.956;2022-09-01T05:24:43;10.40;80.66
65598;SHT31;52267;51.984;20.956;2022-09-01T05:27:09;10.52;80.60
65598;SHT31;52267;51.984;20.956;2022-09-01T05:29:39;10.65;80.71
65598;SHT31;52267;51.984;20.956;2022-09-01T05:32:06;10.77;80.74
65598;SHT31;52267;51.984;20.956;2022-09-01T05:34:38;10.87;80.68
65598;SHT31;52267;51.984;20.956;2022-09-01T05:37:09;10.98;80.87
65598;SHT31;52267;51.984;20.956;2022-09-01T05:39:38;11.08;80.67
65598;SHT31;52267;51.984;20.956;2022-09-01T05:42:05;11.18;80.68
65598;SHT31;52267;51.984;20.956;2022-09-01T05:44:35;11.27;80.77
65598;SHT31;52267;51.984;20.956;2022-09-01T05:47:09;11.36;80.82
65598;SHT31;52267;51.984;20.956;2022-09-01T05:49:37;11.47;80.59
65598;SHT31;52267;51.984;20.956;2022-09-01T05:52:05;11.57;80.61
65598;SHT31;52267;51.984;20.956;2022-09-01T05:54:34;11.66;80.46
65598;SHT31;52267;51.984;20.956;2022-09-01T05:57:01;11.74;80.46
65598;SHT31;52267;51.984;20.956;2022-09-01T05:59:28;11.85;80.27
65598;SHT31;52267;51.984;20.956;2022-09-01T06:01:58;11.95;80.18
65598;SHT31;52267;51.984;20.956;2022-09-01T06:04:26;12.07;80.05
65598;SHT31;52267;51.984;20.956;2022-09-01T06:06:53;12.17;79.95
65598;SHT31;52267;51.984;20.956;2022-09-01T06:09:22;12.27;79.74
65598;SHT31;52267;51.984;20.956;2022-09-01T06:11:49;12.37;79.69
65598;SHT31;52267;51.984;20.956;2022-09-01T06:14:17;12.46;79.54
65598;SHT31;52267;51.984;20.956;2022-09-01T06:16:45;12.56;79.48
65598;SHT31;52267;51.984;20.956;2022-09-01T06:19:12;12.67;79.25
65598;SHT31;52267;51.984;20.956;2022-09-01T06:21:39;12.79;79.30
65598;SHT31;52267;51.984;20.956;2022-09-01T06:24:07;12.91;79.04
65598;SHT31;52267;51.984;20.956;2022-09-01T06:26:35;13.03;78.77
65598;SHT31;52267;51.984;20.956;2022-09-01T06:29:06;13.16;78.45
65598;SHT31;52267;51.984;20.956;2022-09-01T06:31:40;13.29;78.18
65598;SHT31;52267;51.984;20.956;2022-09-01T06:34:09;13.44;77.78
65598;SHT31;52267;51.984;20.956;2022-09-01T06:36:41;13.60;77.53
65598;SHT31;52267;51.984;20.956;2022-09-01T06:39:08;13.78;77.18
65598;SHT31;52267;51.984;20.956;2022-09-01T06:41:48;13.96;76.65
65598;SHT31;52267;51.984;20.956;2022-09-01T06:44:18;14.15;76.05
65598;SHT31;52267;51.984;20.956;2022-09-01T06:46:48;14.36;75.57
65598;SHT31;52267;51.984;20.956;2022-09-01T06:49:16;14.57;75.38
65598;SHT31;52267;51.984;20.956;2022-09-01T06:51:46;14.83;74.94
65598;SHT31;52267;51.984;20.956;2022-09-01T06:54:14;15.08;74.28
65598;SHT31;52267;51.984;20.956;2022-09-01T06:56:42;15.30;73.55
65598;SHT31;52267;51.984;20.956;2022-09-01T06:59:09;15.53;72.71
65598;SHT31;52267;51.984;20.956;2022-09-01T07:01:38;15.81;72.17
65598;SHT31;52267;51.984;20.956;2022-09-01T07:04:05;16.06;71.22
65598;SHT31;52267;51.984;20.956;2022-09-01T07:06:32;16.26;70.62
65598;SHT31;52267;51.984;20.956;2022-09-01T07:09:00;16.45;70.35
65598;SHT31;52267;51.984;20.956;2022-09-01T07:11:29;16.71;69.72
65598;SHT31;52267;51.984;20.956;2022-09-01T07:14:00;16.94;68.78
65598;SHT31;52267;51.984;20.956;2022-09-01T07:16:32;17.18;68.22
65598;SHT31;52267;51.984;20.956;2022-09-01T07:19:06;17.42;67.18
65598;SHT31;52267;51.984;20.956;2022-09-01T07:21:38;17.62;67.19
65598;SHT31;52267;51.984;20.956;2022-09-01T07:24:05;17.81;66.66
65598;SHT31;52267;51.984;20.956;2022-09-01T07:26:33;18.06;65.80
65598;SHT31;52267;51.984;20.956;2022-09-01T07:29:02;18.36;64.63
65598;SHT31;52267;51.984;20.956;2022-09-01T07:31:33;18.62;64.06
65598;SHT31;52267;51.984;20.956;2022-09-01T07:34:04;18.76;63.73
65598;SHT31;52267;51.984;20.956;2022-09-01T07:36:35;18.91;62.79
65598;SHT31;52267;51.984;20.956;2022-09-01T07:39:03;19.11;63.29
65598;SHT31;52267;51.984;20.956;2022-09-01T07:41:31;19.25;62.84
65598;SHT31;52267;51.984;20.956;2022-09-01T07:44:00;19.42;61.93
65598;SHT31;52267;51.984;20.956;2022-09-01T07:46:30;19.64;61.34
65598;SHT31;52267;51.984;20.956;2022-09-01T07:48:58;19.92;58.93
65598;SHT31;52267;51.984;20.956;2022-09-01T07:51:27;20.19;59.51
65598;SHT31;52267;51.984;20.956;2022-09-01T07:53:56;20.40;58.90
65598;SHT31;52267;51.984;20.956;2022-09-01T07:56:24;20.54;59.19
65598;SHT31;52267;51.984;20.956;2022-09-01T07:58:51;20.70;56.45
65598;SHT31;52267;51.984;20.956;2022-09-01T08:01:20;20.77;56.09
65598;SHT31;52267;51.984;20.956;2022-09-01T08:03:54;20.87;56.54
65598;SHT31;52267;51.984;20.956;2022-09-01T08:06:25;21.14;56.33
65598;SHT31;52267;51.984;20.956;2022-09-01T08:08:55;21.38;56.37
65598;SHT31;52267;51.984;20.956;2022-09-01T08:11:25;21.55;54.45
65598;SHT31;52267;51.984;20.956;2022-09-01T08:13:55;21.64;54.30
65598;SHT31;52267;51.984;20.956;2022-09-01T08:16:25;21.70;55.04
65598;SHT31;52267;51.984;20.956;2022-09-01T08:18:55;21.76;53.91
65598;SHT31;52267;51.984;20.956;2022-09-01T08:21:22;21.74;52.19
65598;SHT31;52267;51.984;20.956;2022-09-01T08:23:50;21.66;52.71
65598;SHT31;52267;51.984;20.956;2022-09-01T08:26:21;21.84;52.89
65598;SHT31;52267;51.984;20.956;2022-09-01T08:28:51;22.21;52.80
65598;SHT31;52267;51.984;20.956;2022-09-01T08:31:19;22.33;51.82
65598;SHT31;52267;51.984;20.956;2022-09-01T08:33:47;22.45;51.81
65598;SHT31;52267;51.984;20.956;2022-09-01T08:36:16;22.75;51.42
65598;SHT31;52267;51.984;20.956;2022-09-01T08:38:44;22.81;50.11
65598;SHT31;52267;51.984;20.956;2022-09-01T08:41:13;22.48;51.19
65598;SHT31;52267;51.984;20.956;2022-09-01T08:46:25;21.71;52.47
65598;SHT31;52267;51.984;20.956;2022-09-01T08:49:14;21.36;52.75
65598;SHT31;52267;51.984;20.956;2022-09-01T08:52:10;21.29;52.88
65598;SHT31;52267;51.984;20.956;2022-09-01T08:55:24;21.16;52.21
65598;SHT31;52267;51.984;20.956;2022-09-01T08:58:06;20.94;52.65
65598;SHT31;52267;51.984;20.956;2022-09-01T09:00:38;20.73;53.16
65598;SHT31;52267;51.984;20.956;2022-09-01T09:17:11;22.20;50.65
65598;SHT31;52267;51.984;20.956;2022-09-01T09:19:41;21.93;51.41
65598;SHT31;52267;51.984;20.956;2022-09-01T09:22:11;21.44;51.64
65598;SHT31;52267;51.984;20.956;2022-09-01T09:27:46;20.68;53.17
65598;SHT31;52267;51.984;20.956;2022-09-01T09:30:22;20.40;53.89
65598;SHT31;52267;51.984;20.956;2022-09-01T09:32:57;20.08;54.39
65598;SHT31;52267;51.984;20.956;2022-09-01T09:35:30;19.80;54.56
65598;SHT31;52267;51.984;20.956;2022-09-01T09:41:02;19.32;55.39
65598;SHT31;52267;51.984;20.956;2022-09-01T09:44:17;19.13;55.81
65598;SHT31;52267;51.984;20.956;2022-09-01T09:46:33;18.93;56.30
65598;SHT31;52267;51.984;20.956;2022-09-01T09:51:51;18.65;57.55
65598;SHT31;52267;51.984;20.956;2022-09-01T09:54:38;18.45;58.52
65598;SHT31;52267;51.984;20.956;2022-09-01T09:57:24;18.32;59.15
65598;SHT31;52267;51.984;20.956;2022-09-01T10:02:34;18.14;59.79
65598;SHT31;52267;51.984;20.956;2022-09-01T10:07:51;18.31;59.82
65598;SHT31;52267;51.984;20.956;2022-09-01T10:10:28;18.67;59.13
65598;SHT31;52267;51.984;20.956;2022-09-01T10:13:13;19.06;58.92
65598;SHT31;52267;51.984;20.956;2022-09-01T10:15:48;19.49;58.16
65598;SHT31;52267;51.984;20.956;2022-09-01T10:18:26;19.96;57.24
65598;SHT31;52267;51.984;20.956;2022-09-01T10:23:41;20.64;55.11
65598;SHT31;52267;51.984;20.956;2022-09-01T10:26:16;20.92;53.34
65598;SHT31;52267;51.984;20.956;2022-09-01T10:31:25;21.57;52.13
65598;SHT31;52267;51.984;20.956;2022-09-01T10:33:53;21.88;51.44
65598;SHT31;52267;51.984;20.956;2022-09-01T10:36:20;22.18;51.00
65598;SHT31;52267;51.984;20.956;2022-09-01T10:38:48;22.15;49.82
65598;SHT31;52267;51.984;20.956;2022-09-01T10:46:56;22.02;49.46
65598;SHT31;52267;51.984;20.956;2022-09-01T10:50:04;21.83;49.80
65598;SHT31;52267;51.984;20.956;2022-09-01T10:52:58;22.03;49.82
65598;SHT31;52267;51.984;20.956;2022-09-01T10:55:36;22.33;50.05
65598;SHT31;52267;51.984;20.956;2022-09-01T11:01:05;22.33;49.04
65598;SHT31;52267;51.984;20.956;2022-09-01T11:03:37;21.93;48.62
65598;SHT31;52267;51.984;20.956;2022-09-01T11:09:24;22.41;49.44
65598;SHT31;52267;51.984;20.956;2022-09-01T11:14:32;22.21;48.56
65598;SHT31;52267;51.984;20.956;2022-09-01T11:20:03;22.23;48.43
65598;SHT31;52267;51.984;20.956;2022-09-01T11:22:39;21.98;48.44
65598;SHT31;52267;51.984;20.956;2022-09-01T11:25:12;21.97;47.60
65598;SHT31;52267;51.984;20.956;2022-09-01T11:28:00;22.13;47.34
65598;SHT31;52267;51.984;20.956;2022-09-01T11:30:43;22.25;47.19
65598;SHT31;52267;51.984;20.956;2022-09-01T11:33:28;22.48;47.00
65598;SHT31;52267;51.984;20.956;2022-09-01T11:36:23;22.62;46.69
65598;SHT31;52267;51.984;20.956;2022-09-01T11:47:37;22.94;45.13
65598;SHT31;52267;51.984;20.956;2022-09-01T11:52:41;23.11;43.95
65598;SHT31;52267;51.984;20.956;2022-09-01T11:55:43;23.15;43.21
65598;SHT31;52267;51.984;20.956;2022-09-01T12:01:16;23.27;43.12
65598;SHT31;52267;51.984;20.956;2022-09-01T12:03:56;23.39;42.80
65598;SHT31;52267;51.984;20.956;2022-09-01T12:06:25;23.42;42.88
65598;SHT31;52267;51.984;20.956;2022-09-01T12:08:56;23.52;42.69
65598;SHT31;52267;51.984;20.956;2022-09-01T12:11:31;23.56;42.88
65598;SHT31;52267;51.984;20.956;2022-09-01T12:14:05;23.36;42.62
65598;SHT31;52267;51.984;20.956;2022-09-01T12:16:36;22.99;42.18
65598;SHT31;52267;51.984;20.956;2022-09-01T12:19:07;22.69;42.52
65598;SHT31;52267;51.984;20.956;2022-09-01T12:21:54;22.47;42.33
65598;SHT31;52267;51.984;20.956;2022-09-01T12:24:25;22.59;42.87
65598;SHT31;52267;51.984;20.956;2022-09-01T12:26:53;22.79;42.53
65598;SHT31;52267;51.984;20.956;2022-09-01T12:29:24;23.00;42.19
65598;SHT31;52267;51.984;20.956;2022-09-01T12:31:51;23.19;42.04
65598;SHT31;52267;51.984;20.956;2022-09-01T12:34:23;23.35;41.90
65598;SHT31;52267;51.984;20.956;2022-09-01T12:39:38;23.65;41.24
65598;SHT31;52267;51.984;20.956;2022-09-01T12:44:48;23.98;41.10
65598;SHT31;52267;51.984;20.956;2022-09-01T12:50:35;24.16;41.45
65598;SHT31;52267;51.984;20.956;2022-09-01T12:52:59;24.27;41.05
65598;SHT31;52267;51.984;20.956;2022-09-01T12:55:32;24.39;40.98
65598;SHT31;52267;51.984;20.956;2022-09-01T12:58:06;24.37;40.80
65598;SHT31;52267;51.984;20.956;2022-09-01T13:00:36;24.39;40.54
65598;SHT31;52267;51.984;20.956;2022-09-01T13:03:29;24.47;40.50
65598;SHT31;52267;51.984;20.956;2022-09-01T13:05:58;24.41;40.14
65598;SHT31;52267;51.984;20.956;2022-09-01T13:08:28;24.35;40.11
65598;SHT31;52267;51.984;20.956;2022-09-01T13:11:05;24.36;40.23
65598;SHT31;52267;51.984;20.956;2022-09-01T13:13:34;24.37;39.42
65598;SHT31;52267;51.984;20.956;2022-09-01T13:16:02;24.31;39.83
65598;SHT31;52267;51.984;20.956;2022-09-01T13:18:33;24.30;39.75
65598;SHT31;52267;51.984;20.956;2022-09-01T13:21:00;24.11;38.46
65598;SHT31;52267;51.984;20.956;2022-09-01T13:23:27;24.04;39.20
65598;SHT31;52267;51.984;20.956;2022-09-01T13:25:54;24.06;39.18
65598;SHT31;52267;51.984;20.956;2022-09-01T13:28:21;24.12;39.10
65598;SHT31;52267;51.984;20.956;2022-09-01T13:30:53;24.11;39.45
65598;SHT31;52267;51.984;20.956;2022-09-01T13:33:27;24.14;38.84
65598;SHT31;52267;51.984;20.956;2022-09-01T13:35:54;24.28;38.74
65598;SHT31;52267;51.984;20.956;2022-09-01T13:38:21;24.27;38.75
65598;SHT31;52267;51.984;20.956;2022-09-01T13:40:48;24.25;39.47
65598;SHT31;52267;51.984;20.956;2022-09-01T13:43:18;23.95;38.86
65598;SHT31;52267;51.984;20.956;2022-09-01T13:45:48;23.67;40.05
65598;SHT31;52267;51.984;20.956;2022-09-01T13:48:15;23.42;40.31
65598;SHT31;52267;51.984;20.956;2022-09-01T13:50:44;23.08;40.71
65598;SHT31;52267;51.984;20.956;2022-09-01T13:53:15;22.81;41.17
65598;SHT31;52267;51.984;20.956;2022-09-01T13:55:42;22.53;41.14
65598;SHT31;52267;51.984;20.956;2022-09-01T13:58:09;22.28;41.67
65598;SHT31;52267;51.984;20.956;2022-09-01T14:00:38;22.04;41.89
65598;SHT31;52267;51.984;20.956;2022-09-01T14:03:16;21.80;42.38
65598;SHT31;52267;51.984;20.956;2022-09-01T14:05:47;21.71;42.44
65598;SHT31;52267;51.984;20.956;2022-09-01T14:08:16;21.82;42.40
65598;SHT31;52267;51.984;20.956;2022-09-01T14:10:47;21.95;42.01
65598;SHT31;52267;51.984;20.956;2022-09-01T14:13:17;21.99;41.31
65598;SHT31;52267;51.984;20.956;2022-09-01T14:15:46;21.79;41.90
65598;SHT31;52267;51.984;20.956;2022-09-01T14:18:14;21.80;41.17
65598;SHT31;52267;51.984;20.956;2022-09-01T14:20:43;22.03;41.26
65598;SHT31;52267;51.984;20.956;2022-09-01T14:23:13;22.22;41.02
65598;SHT31;52267;51.984;20.956;2022-09-01T14:25:41;22.41;40.87
65598;SHT31;52267;51.984;20.956;2022-09-01T14:28:11;22.61;40.73
65598;SHT31;52267;51.984;20.956;2022-09-01T14:30:39;22.81;40.71
65598;SHT31;52267;51.984;20.956;2022-09-01T14:33:08;22.93;40.69
65598;SHT31;52267;51.984;20.956;2022-09-01T14:35:37;23.00;40.50
65598;SHT31;52267;51.984;20.956;2022-09-01T14:38:07;22.91;40.74
65598;SHT31;52267;51.984;20.956;2022-09-01T14:40:35;22.61;40.90
65598;SHT31;52267;51.984;20.956;2022-09-01T14:43:05;22.34;41.69
65598;SHT31;52267;51.984;20.956;2022-09-01T14:45:35;22.15;42.30
65598;SHT31;52267;51.984;20.956;2022-09-01T14:48:03;21.95;42.42
65598;SHT31;52267;51.984;20.956;2022-09-01T14:50:32;21.78;42.82
65598;SHT31;52267;51.984;20.956;2022-09-01T14:53:00;21.52;42.95
65598;SHT31;52267;51.984;20.956;2022-09-01T14:55:28;21.32;43.30
65598;SHT31;52267;51.984;20.956;2022-09-01T14:57:57;21.14;43.34
65598;SHT31;52267;51.984;20.956;2022-09-01T15:00:25;20.98;43.65
65598;SHT31;52267;51.984;20.956;2022-09-01T15:02:53;20.81;43.68
65598;SHT31;52267;51.984;20.956;2022-09-01T15:05:21;20.71;43.89
65598;SHT31;52267;51.984;20.956;2022-09-01T15:07:50;20.61;44.02
65598;SHT31;52267;51.984;20.956;2022-09-01T15:10:24;20.54;44.16
65598;SHT31;52267;51.984;20.956;2022-09-01T15:12:55;20.68;44.35
65598;SHT31;52267;51.984;20.956;2022-09-01T15:15:25;20.90;44.09
65598;SHT31;52267;51.984;20.956;2022-09-01T15:17:54;21.02;43.99
65598;SHT31;52267;51.984;20.956;2022-09-01T15:20:22;21.11;43.91
65598;SHT31;52267;51.984;20.956;2022-09-01T15:23:08;21.08;43.83
65598;SHT31;52267;51.984;20.956;2022-09-01T15:25:36;21.01;44.21
65598;SHT31;52267;51.984;20.956;2022-09-01T15:28:03;20.94;44.46
65598;SHT31;52267;51.984;20.956;2022-09-01T15:30:31;20.84;44.87
65598;SHT31;52267;51.984;20.956;2022-09-01T15:32:58;20.68;45.03
65598;SHT31;52267;51.984;20.956;2022-09-01T15:35:26;20.55;45.49
65598;SHT31;52267;51.984;20.956;2022-09-01T15:37:54;20.46;45.60
65598;SHT31;52267;51.984;20.956;2022-09-01T15:40:22;20.41;45.69
65598;SHT31;52267;51.984;20.956;2022-09-01T15:42:50;20.32;45.86
65598;SHT31;52267;51.984;20.956;2022-09-01T15:45:18;20.21;46.25
65598;SHT31;52267;51.984;20.956;2022-09-01T15:47:47;20.07;46.40
65598;SHT31;52267;51.984;20.956;2022-09-01T15:50:16;19.98;46.81
65598;SHT31;52267;51.984;20.956;2022-09-01T15:52:51;19.88;47.44
65598;SHT31;52267;51.984;20.956;2022-09-01T15:55:39;19.84;48.04
65598;SHT31;52267;51.984;20.956;2022-09-01T15:58:12;19.83;48.11
65598;SHT31;52267;51.984;20.956;2022-09-01T16:00:43;19.93;47.85
65598;SHT31;52267;51.984;20.956;2022-09-01T16:03:10;20.06;47.69
65598;SHT31;52267;51.984;20.956;2022-09-01T16:05:38;20.15;47.95
65598;SHT31;52267;51.984;20.956;2022-09-01T16:08:07;20.22;48.05
65598;SHT31;52267;51.984;20.956;2022-09-01T16:10:37;20.35;47.52
65598;SHT31;52267;51.984;20.956;2022-09-01T16:13:05;20.46;47.11
65598;SHT31;52267;51.984;20.956;2022-09-01T16:15:33;20.49;47.84
65598;SHT31;52267;51.984;20.956;2022-09-01T16:20:38;20.60;47.28
65598;SHT31;52267;51.984;20.956;2022-09-01T16:23:44;20.62;46.96
65598;SHT31;52267;51.984;20.956;2022-09-01T16:26:16;20.53;46.38
65598;SHT31;52267;51.984;20.956;2022-09-01T16:28:47;20.51;46.39
65598;SHT31;52267;51.984;20.956;2022-09-01T16:31:25;20.57;46.76
65598;SHT31;52267;51.984;20.956;2022-09-01T16:33:59;20.62;46.64
65598;SHT31;52267;51.984;20.956;2022-09-01T16:42:55;20.54;46.25
65598;SHT31;52267;51.984;20.956;2022-09-01T16:49:16;20.37;46.37
65598;SHT31;52267;51.984;20.956;2022-09-01T16:52:08;20.28;46.91
65598;SHT31;52267;51.984;20.956;2022-09-01T17:04:06;19.66;47.46
65598;SHT31;52267;51.984;20.956;2022-09-01T17:09:56;19.30;48.61
65598;SHT31;52267;51.984;20.956;2022-09-01T17:15:13;18.84;50.30
65598;SHT31;52267;51.984;20.956;2022-09-01T17:17:50;18.58;51.30
65598;SHT31;52267;51.984;20.956;2022-09-01T17:20:29;18.35;52.48
65598;SHT31;52267;51.984;20.956;2022-09-01T17:23:05;18.10;52.92
65598;SHT31;52267;51.984;20.956;2022-09-01T17:25:57;17.93;53.70
65598;SHT31;52267;51.984;20.956;2022-09-01T17:31:41;17.39;55.95
65598;SHT31;52267;51.984;20.956;2022-09-01T17:43:28;16.44;58.16
65598;SHT31;52267;51.984;20.956;2022-09-01T17:58:03;15.38;60.42
65598;SHT31;52267;51.984;20.956;2022-09-01T18:00:45;15.21;60.49
65598;SHT31;52267;51.984;20.956;2022-09-01T18:06:33;14.87;61.50
65598;SHT31;52267;51.984;20.956;2022-09-01T18:09:23;14.74;61.80